Time;durP1;ratioP1;P1;durP2;ratioP2;P2;SDS_P1;SDS_P2;PMS_P1;PMS_P2;Temp;Humidity;BMP_temperature;BMP_pressure;BME280_temperature;BME280_humidity;BME280_pressure;Samples;Min_cycle;Max_cycle;Signal;HPM_P1;HPM_P2
2021/04/29 00:00:15;;;;;;;47.83;33.85;;;10.40;99.90;;;;;;5010449;28;20032;-60
2021/04/29 00:02:41;;;;;;;46.35;33.45;;;10.30;99.90;;;;;;5008634;28;20034;-59
2021/04/29 00:05:09;;;;;;;43.70;31.83;;;10.30;99.90;;;;;;5010783;28;20084;-59
2021/04/29 00:07:35;;;;;;;43.45;32.22;;;10.30;99.90;;;;;;5009440;28;20034;-59
2021/04/29 00:10:03;;;;;;;47.50;33.35;;;10.30;99.90;;;;;;5010478;28;20030;-59
2021/04/29 00:12:28;;;;;;;47.25;33.67;;;10.30;99.90;;;;;;5030351;28;20021;-59
2021/04/29 00:14:54;;;;;;;45.83;32.95;;;10.20;99.90;;;;;;5013718;28;20497;-58
2021/04/29 00:17:20;;;;;;;42.10;31.75;;;10.20;99.90;;;;;;5015201;28;20037;-59
2021/04/29 00:19:45;;;;;;;45.17;33.10;;;10.20;99.90;;;;;;5012336;28;20033;-59
2021/04/29 00:22:11;;;;;;;43.78;32.72;;;10.10;99.90;;;;;;5015054;28;20026;-60
2021/04/29 00:24:36;;;;;;;44.25;32.47;;;10.10;99.90;;;;;;5011597;28;20033;-60
2021/04/29 00:27:02;;;;;;;44.22;33.47;;;10.20;99.90;;;;;;5014681;28;20366;-60
2021/04/29 00:29:28;;;;;;;44.95;34.50;;;10.10;99.90;;;;;;5012963;28;20025;-60
2021/04/29 00:31:53;;;;;;;48.63;33.13;;;10.10;99.90;;;;;;5030959;28;20113;-60
2021/04/29 00:34:19;;;;;;;49.63;33.30;;;10.10;99.90;;;;;;5014146;28;20046;-60
2021/04/29 00:36:45;;;;;;;46.75;34.00;;;10.00;99.90;;;;;;5014479;28;20026;-61
2021/04/29 00:39:11;;;;;;;50.63;35.85;;;9.90;99.90;;;;;;5031313;28;20566;-64
2021/04/29 00:41:36;;;;;;;47.83;34.83;;;10.00;99.90;;;;;;5014111;28;20030;-61
2021/04/29 00:44:02;;;;;;;49.67;34.17;;;9.90;99.90;;;;;;5013892;28;20022;-60
2021/04/29 00:46:28;;;;;;;43.38;33.55;;;9.90;99.90;;;;;;5014693;28;20118;-60
2021/04/29 00:48:54;;;;;;;50.05;34.17;;;9.90;99.90;;;;;;5013809;28;20022;-60
2021/04/29 00:51:21;;;;;;;43.80;32.97;;;9.90;99.90;;;;;;5014877;28;20032;-60
2021/04/29 00:53:47;;;;;;;47.38;33.20;;;9.90;99.90;;;;;;5014086;28;20022;-60
2021/04/29 00:56:13;;;;;;;44.90;33.67;;;9.90;99.90;;;;;;5015292;28;20021;-60
2021/04/29 00:58:39;;;;;;;50.20;34.65;;;10.00;99.90;;;;;;5013460;28;20057;-60
2021/04/29 01:01:07;;;;;;;47.75;35.00;;;10.00;99.90;;;;;;5013430;28;20022;-60
2021/04/29 01:03:38;;;;;;;50.25;35.22;;;10.00;99.90;;;;;;5012829;28;20398;-60
2021/04/29 01:06:15;;;;;;;60.78;38.05;;;10.00;99.90;;;;;;5015143;28;20060;-60
2021/04/29 01:08:57;;;;;;;55.28;37.67;;;10.00;99.90;;;;;;5014477;28;20030;-60
2021/04/29 01:11:26;;;;;;;51.57;35.33;;;10.00;99.90;;;;;;5014844;28;20029;-60
2021/04/29 01:13:55;;;;;;;46.78;33.70;;;9.90;99.90;;;;;;5013306;28;20026;-60
2021/04/29 01:16:24;;;;;;;48.20;33.80;;;9.90;99.90;;;;;;5016183;28;20060;-60
2021/04/29 01:18:53;;;;;;;46.88;31.58;;;9.90;99.90;;;;;;5013317;28;20106;-60
2021/04/29 01:21:19;;;;;;;44.75;31.88;;;9.90;99.90;;;;;;5015636;28;20029;-60
2021/04/29 01:24:19;;;;;;;46.92;32.28;;;9.80;99.90;;;;;;5013694;28;20112;-60
2021/04/29 01:26:52;;;;;;;45.25;30.95;;;9.80;99.90;;;;;;5014784;28;20073;-60
2021/04/29 01:29:32;;;;;;;43.55;32.70;;;9.70;99.90;;;;;;5013871;28;20387;-60
2021/04/29 01:31:59;;;;;;;49.47;32.42;;;9.70;99.90;;;;;;5015617;28;20104;-60
2021/04/29 01:34:27;;;;;;;40.55;32.35;;;9.70;99.90;;;;;;5012700;28;20026;-60
2021/04/29 01:36:55;;;;;;;43.75;31.77;;;9.70;99.90;;;;;;5014046;28;20326;-60
2021/04/29 01:39:21;;;;;;;44.53;32.63;;;9.70;99.90;;;;;;5015430;28;20046;-60
2021/04/29 01:41:52;;;;;;;46.20;34.00;;;9.60;99.90;;;;;;5012618;28;20096;-60
2021/04/29 01:44:22;;;;;;;52.33;34.33;;;9.70;99.90;;;;;;5013641;28;20040;-60
2021/04/29 01:46:49;;;;;;;50.50;33.88;;;9.70;99.90;;;;;;5015197;28;20486;-60
2021/04/29 01:49:15;;;;;;;40.35;31.17;;;9.70;99.90;;;;;;5012368;28;20414;-60
2021/04/29 01:51:41;;;;;;;46.78;32.20;;;9.70;99.90;;;;;;5013148;28;20026;-61
2021/04/29 01:54:10;;;;;;;47.42;31.25;;;9.70;99.90;;;;;;5015307;28;20026;-61
2021/04/29 01:56:37;;;;;;;45.90;31.92;;;9.70;99.90;;;;;;5012707;28;20063;-60
2021/04/29 01:59:10;;;;;;;45.05;32.45;;;9.60;99.90;;;;;;5013939;28;20057;-60
2021/04/29 02:01:36;;;;;;;;;;;9.50;99.90;;;;;;5016103;28;20022;-60
2021/04/29 02:04:03;;;;;;;46.67;31.40;;;9.50;99.90;;;;;;5014066;28;20344;-60
2021/04/29 02:06:28;;;;;;;41.67;31.70;;;9.40;99.90;;;;;;5014235;28;20482;-60
2021/04/29 02:08:54;;;;;;;42.70;30.85;;;9.30;99.90;;;;;;5013960;28;20101;-60
2021/04/29 02:11:20;;;;;;;44.70;30.73;;;9.40;99.90;;;;;;5013343;28;20061;-60
2021/04/29 02:13:49;;;;;;;39.42;29.38;;;9.50;99.90;;;;;;5014399;28;20041;-60
2021/04/29 02:16:39;;;;;;;38.35;28.52;;;9.50;99.90;;;;;;5013380;28;20018;-60
2021/04/29 02:19:08;;;;;;;35.95;28.75;;;9.50;99.90;;;;;;5020910;28;20038;-60
2021/04/29 02:21:37;;;;;;;39.13;28.13;;;9.60;99.90;;;;;;5013406;28;20042;-60
2021/04/29 02:24:04;;;;;;;35.45;26.42;;;9.60;99.90;;;;;;5013576;28;20297;-60
2021/04/29 02:26:32;;;;;;;34.13;25.60;;;9.60;99.90;;;;;;5013306;28;20029;-60
2021/04/29 02:28:58;;;;;;;40.25;27.50;;;9.60;99.90;;;;;;5013543;28;20030;-60
2021/04/29 02:31:24;;;;;;;33.00;25.20;;;9.70;99.90;;;;;;5028542;28;20044;-60
2021/04/29 02:33:51;;;;;;;33.90;25.55;;;9.70;99.90;;;;;;5012273;28;20054;-60
2021/04/29 02:36:17;;;;;;;30.50;24.33;;;9.70;99.90;;;;;;5014065;28;20363;-60
2021/04/29 02:38:43;;;;;;;36.55;25.27;;;9.60;99.90;;;;;;5011853;28;20095;-60
2021/04/29 02:41:09;;;;;;;38.60;25.67;;;9.60;99.90;;;;;;5012664;28;20569;-60
2021/04/29 02:43:37;;;;;;;34.95;24.90;;;9.70;99.90;;;;;;5012899;28;20045;-60
2021/04/29 02:46:03;;;;;;;35.63;24.90;;;9.70;99.90;;;;;;5011867;28;20113;-61
2021/04/29 02:48:28;;;;;;;31.17;23.85;;;9.80;99.90;;;;;;5011298;28;20132;-60
2021/04/29 02:50:54;;;;;;;33.08;24.65;;;9.80;99.90;;;;;;5013212;28;20100;-60
2021/04/29 02:53:20;;;;;;;29.48;22.63;;;9.80;99.90;;;;;;5013110;28;20486;-60
2021/04/29 02:55:48;;;;;;;33.00;22.08;;;9.80;99.90;;;;;;5013176;28;20056;-60
2021/04/29 02:58:16;;;;;;;30.98;23.40;;;9.80;99.90;;;;;;5013286;28;20046;-60
2021/04/29 03:00:43;;;;;;;33.72;25.48;;;9.80;99.90;;;;;;5013527;28;20502;-60
2021/04/29 03:03:09;;;;;;;35.80;26.77;;;9.70;99.90;;;;;;5013656;28;20105;-60
2021/04/29 03:05:36;;;;;;;39.22;29.75;;;9.70;99.90;;;;;;5013449;28;20018;-61
2021/04/29 03:08:02;;;;;;;45.35;32.70;;;9.80;99.90;;;;;;5013103;28;20029;-61
2021/04/29 03:10:28;;;;;;;44.53;33.38;;;9.80;99.90;;;;;;5012270;28;20109;-61
2021/04/29 03:12:54;;;;;;;45.33;33.35;;;9.90;99.90;;;;;;5012755;28;20053;-60
2021/04/29 03:15:20;;;;;;;41.88;32.53;;;9.90;99.90;;;;;;5012499;28;20486;-60
2021/04/29 03:17:46;;;;;;;38.97;29.92;;;10.00;99.90;;;;;;5012269;28;20467;-61
2021/04/29 03:20:13;;;;;;;40.22;29.77;;;10.00;99.90;;;;;;5013021;28;20022;-60
2021/04/29 03:22:38;;;;;;;38.70;27.85;;;10.00;99.90;;;;;;5012319;28;20117;-60
2021/04/29 03:25:05;;;;;;;42.78;29.20;;;9.80;99.90;;;;;;5011426;28;20117;-60
2021/04/29 03:27:31;;;;;;;36.65;28.15;;;9.80;99.90;;;;;;5012555;28;20495;-60
2021/04/29 03:29:57;;;;;;;35.00;27.45;;;9.80;99.90;;;;;;5012324;28;20037;-60
2021/04/29 03:32:23;;;;;;;38.05;27.48;;;9.70;99.90;;;;;;5013461;28;20026;-60
2021/04/29 03:34:49;;;;;;;35.13;27.52;;;9.80;99.90;;;;;;5012653;28;20037;-60
2021/04/29 03:37:15;;;;;;;38.65;27.75;;;9.80;99.90;;;;;;5013156;28;20021;-60
2021/04/29 03:39:41;;;;;;;33.88;26.17;;;9.70;99.90;;;;;;5012797;28;20048;-60
2021/04/29 03:42:07;;;;;;;34.05;25.88;;;9.70;99.90;;;;;;5012337;28;20026;-60
2021/04/29 03:44:36;;;;;;;33.08;25.58;;;9.60;99.90;;;;;;5010680;28;20533;-60
2021/04/29 03:47:03;;;;;;;33.60;25.90;;;9.70;99.90;;;;;;5012390;28;20018;-60
2021/04/29 03:49:30;;;;;;;33.10;24.73;;;9.80;99.90;;;;;;5012366;28;20049;-60
2021/04/29 03:51:56;;;;;;;34.55;25.60;;;9.80;99.90;;;;;;5011110;28;20106;-60
2021/04/29 03:54:21;;;;;;;36.13;26.33;;;9.70;99.90;;;;;;5011298;28;20136;-60
2021/04/29 03:56:47;;;;;;;34.22;25.75;;;9.70;99.90;;;;;;5011425;28;20032;-60
2021/04/29 03:59:13;;;;;;;35.22;25.27;;;9.60;99.90;;;;;;5011697;28;20042;-60
2021/04/29 04:01:39;;;;;;;34.72;25.75;;;9.60;99.90;;;;;;5012250;28;20112;-60
2021/04/29 04:04:05;;;;;;;33.45;26.35;;;9.60;99.90;;;;;;5012926;28;20424;-60
2021/04/29 04:06:31;;;;;;;34.88;26.27;;;9.60;99.90;;;;;;5012355;28;20022;-60
2021/04/29 04:08:56;;;;;;;37.92;26.00;;;9.70;99.90;;;;;;5012325;28;20030;-60
2021/04/29 04:11:22;;;;;;;31.45;25.30;;;9.60;99.90;;;;;;5012508;28;20479;-60
2021/04/29 04:13:49;;;;;;;35.72;25.13;;;9.50;99.90;;;;;;5012486;28;20030;-60
2021/04/29 04:16:15;;;;;;;34.15;25.55;;;9.60;99.90;;;;;;5012628;28;20053;-60
2021/04/29 04:18:41;;;;;;;36.00;27.55;;;9.60;99.90;;;;;;5012085;28;20014;-60
2021/04/29 04:21:07;;;;;;;36.15;26.17;;;9.70;99.90;;;;;;5011773;28;20052;-60
2021/04/29 04:23:32;;;;;;;33.50;27.05;;;9.60;99.90;;;;;;5011726;28;20030;-60
2021/04/29 04:25:58;;;;;;;30.33;25.55;;;9.60;99.90;;;;;;5011710;28;20025;-60
2021/04/29 04:28:23;;;;;;;33.65;26.63;;;9.60;99.90;;;;;;5011592;28;20021;-60
2021/04/29 04:30:49;;;;;;;35.30;25.75;;;9.60;99.90;;;;;;5011130;28;20104;-60
2021/04/29 04:33:15;;;;;;;33.92;25.65;;;9.60;99.90;;;;;;5011364;28;20403;-60
2021/04/29 04:35:40;;;;;;;32.88;25.20;;;9.60;99.90;;;;;;5011726;28;20064;-60
2021/04/29 04:38:06;;;;;;;31.85;24.00;;;9.60;99.90;;;;;;5011751;28;20522;-60
2021/04/29 04:40:32;;;;;;;32.17;24.13;;;9.60;99.90;;;;;;5026930;28;20026;-60
2021/04/29 04:42:57;;;;;;;31.77;25.02;;;9.40;99.90;;;;;;5012085;28;20034;-60
2021/04/29 04:45:23;;;;;;;33.03;25.20;;;9.40;99.90;;;;;;5011946;28;20061;-60
2021/04/29 04:47:49;;;;;;;34.67;25.15;;;9.40;99.90;;;;;;5011804;28;20527;-60
2021/04/29 04:50:14;;;;;;;35.30;25.80;;;9.50;99.90;;;;;;5012023;28;20356;-60
2021/04/29 04:52:40;;;;;;;35.22;24.67;;;9.40;99.90;;;;;;5011745;28;20109;-60
2021/04/29 04:55:06;;;;;;;33.75;24.92;;;9.50;99.90;;;;;;5012585;28;20033;-60
2021/04/29 04:57:32;;;;;;;36.25;24.52;;;9.50;99.90;;;;;;5011573;28;20029;-60
2021/04/29 04:59:57;;;;;;;29.95;23.70;;;9.50;99.90;;;;;;5015733;28;20026;-60
2021/04/29 05:02:23;;;;;;;33.03;25.00;;;9.40;99.90;;;;;;5016232;28;20391;-60
2021/04/29 05:04:49;;;;;;;32.97;25.48;;;9.40;99.90;;;;;;5016572;28;20041;-60
2021/04/29 05:07:15;;;;;;;35.30;25.75;;;9.40;99.90;;;;;;5015429;28;20041;-60
2021/04/29 05:09:42;;;;;;;30.45;25.35;;;9.50;99.90;;;;;;5016384;28;20030;-60
2021/04/29 05:12:09;;;;;;;30.17;24.15;;;9.60;99.90;;;;;;5014542;28;20386;-60
2021/04/29 05:14:38;;;;;;;31.08;24.20;;;9.60;99.90;;;;;;5016124;28;20026;-60
2021/04/29 05:17:04;;;;;;;30.10;24.48;;;9.50;99.90;;;;;;5015490;28;20112;-60
2021/04/29 05:19:30;;;;;;;31.17;23.05;;;9.50;99.90;;;;;;5015078;28;20117;-60
2021/04/29 05:21:56;;;;;;;28.42;23.65;;;9.40;99.90;;;;;;5013994;28;20527;-60
2021/04/29 05:24:21;;;;;;;34.08;23.80;;;9.30;99.90;;;;;;5014998;28;20036;-60
2021/04/29 05:26:47;;;;;;;32.35;23.58;;;9.30;99.90;;;;;;5014391;28;20493;-60
2021/04/29 05:29:13;;;;;;;29.08;22.30;;;9.30;99.90;;;;;;5014844;28;20021;-60
2021/04/29 05:31:39;;;;;;;33.75;21.27;;;9.40;99.90;;;;;;5013888;28;20022;-60
2021/04/29 05:34:04;;;;;;;32.35;21.48;;;9.40;99.90;;;;;;5014479;28;20049;-60
2021/04/29 05:36:30;;;;;;;28.45;20.95;;;9.40;99.90;;;;;;5015039;28;20058;-60
2021/04/29 05:38:57;;;;;;;27.42;20.38;;;9.50;99.90;;;;;;5014824;28;20470;-60
2021/04/29 05:41:23;;;;;;;28.90;20.30;;;9.50;99.90;;;;;;5014941;28;20111;-60
2021/04/29 05:43:49;;;;;;;26.25;19.77;;;9.50;99.90;;;;;;5013052;28;20029;-60
2021/04/29 05:46:15;;;;;;;25.38;18.00;;;9.50;99.90;;;;;;5013635;28;20084;-60
2021/04/29 05:48:40;;;;;;;23.02;18.02;;;9.40;99.90;;;;;;5031472;28;20033;-61
2021/04/29 05:51:06;;;;;;;26.73;17.77;;;9.40;99.90;;;;;;5021540;28;20033;-61
2021/04/29 05:53:32;;;;;;;30.77;18.42;;;9.40;99.90;;;;;;5030001;28;20021;-60
2021/04/29 05:55:58;;;;;;;23.17;18.20;;;9.30;99.90;;;;;;5031747;28;20462;-60
2021/04/29 05:58:23;;;;;;;23.20;18.15;;;9.30;99.90;;;;;;5013709;28;20045;-60
2021/04/29 06:00:49;;;;;;;27.33;18.92;;;9.30;99.90;;;;;;5019143;28;20022;-60
2021/04/29 06:03:15;;;;;;;26.40;18.27;;;9.40;99.90;;;;;;5010868;28;20344;-60
2021/04/29 06:05:41;;;;;;;26.58;17.83;;;9.30;99.90;;;;;;5020418;28;20040;-60
2021/04/29 06:08:07;;;;;;;35.22;18.05;;;9.40;99.90;;;;;;5010998;28;20029;-60
2021/04/29 06:10:35;;;;;;;25.85;16.83;;;9.50;99.90;;;;;;5020335;28;20024;-60
2021/04/29 06:13:00;;;;;;;22.02;14.80;;;9.50;99.90;;;;;;5014251;28;20029;-60
2021/04/29 06:15:26;;;;;;;27.33;14.95;;;9.50;99.90;;;;;;5020523;28;20021;-60
2021/04/29 06:17:52;;;;;;;26.33;14.40;;;9.60;99.90;;;;;;5017311;28;20620;-60
2021/04/29 06:20:18;;;;;;;20.58;14.18;;;9.70;99.90;;;;;;5019904;28;20199;-60
2021/04/29 06:22:43;;;;;;;34.83;14.13;;;9.70;99.90;;;;;;5020567;28;20034;-60
2021/04/29 06:25:10;;;;;;;24.15;13.10;;;9.80;99.90;;;;;;5020535;28;20037;-59
2021/04/29 06:27:36;;;;;;;20.80;11.40;;;9.80;99.90;;;;;;5011751;28;20061;-61
2021/04/29 06:30:05;;;;;;;20.48;12.95;;;9.80;99.90;;;;;;5013593;28;20022;-60
2021/04/29 06:32:30;;;;;;;20.08;12.40;;;9.80;99.90;;;;;;5025323;28;20034;-60
2021/04/29 06:34:56;;;;;;;19.02;13.25;;;9.90;99.90;;;;;;5023861;28;20441;-60
2021/04/29 06:37:22;;;;;;;22.20;14.50;;;9.70;99.90;;;;;;5019926;28;20071;-60
2021/04/29 06:39:48;;;;;;;21.15;14.63;;;9.50;99.90;;;;;;5021237;28;20170;-60
2021/04/29 06:42:14;;;;;;;21.92;14.82;;;9.40;99.90;;;;;;5013439;28;20083;-60
2021/04/29 06:44:40;;;;;;;23.30;14.02;;;9.50;99.90;;;;;;5013365;28;20116;-60
2021/04/29 06:47:06;;;;;;;26.80;14.85;;;9.50;99.90;;;;;;5016050;28;20388;-60
2021/04/29 06:49:32;;;;;;;23.63;14.50;;;9.50;99.90;;;;;;5011842;28;20025;-60
2021/04/29 06:51:58;;;;;;;31.00;15.38;;;9.60;99.90;;;;;;5015961;28;20060;-59
2021/04/29 06:54:24;;;;;;;52.90;16.48;;;9.50;99.90;;;;;;5008922;28;20036;-60
2021/04/29 06:56:51;;;;;;;27.85;15.30;;;9.40;99.90;;;;;;5013116;28;20034;-60
2021/04/29 06:59:17;;;;;;;20.70;15.13;;;9.30;99.90;;;;;;5018866;28;20048;-60
2021/04/29 07:01:43;;;;;;;37.28;16.60;;;9.20;99.90;;;;;;5018881;28;20033;-59
2021/04/29 07:04:08;;;;;;;27.10;15.60;;;9.10;99.90;;;;;;5013544;28;20063;-59
2021/04/29 07:06:34;;;;;;;52.05;16.95;;;9.20;99.90;;;;;;5008349;28;20018;-60
2021/04/29 07:09:00;;;;;;;23.75;13.32;;;9.00;99.90;;;;;;5008631;28;20390;-59
2021/04/29 07:11:27;;;;;;;22.15;13.40;;;9.00;99.90;;;;;;4991302;28;20026;-59
2021/04/29 07:13:52;;;;;;;21.58;13.48;;;9.10;99.90;;;;;;5007666;28;20022;-59
2021/04/29 07:16:18;;;;;;;25.38;13.90;;;9.10;99.90;;;;;;5016153;28;20431;-60
2021/04/29 07:18:44;;;;;;;23.17;10.57;;;9.00;99.90;;;;;;5011963;28;20030;-59
2021/04/29 07:21:09;;;;;;;19.02;12.23;;;8.80;99.90;;;;;;5012206;28;20029;-59
2021/04/29 07:23:35;;;;;;;38.65;11.80;;;8.80;99.90;;;;;;5010346;28;20029;-59
2021/04/29 07:26:00;;;;;;;33.17;11.73;;;8.80;99.90;;;;;;5015761;28;20037;-59
2021/04/29 07:28:27;;;;;;;15.90;10.00;;;8.70;99.90;;;;;;5013714;28;20029;-59
2021/04/29 07:30:53;;;;;;;13.55;8.52;;;8.80;99.90;;;;;;5011636;28;20034;-59
2021/04/29 07:33:19;;;;;;;12.98;8.95;;;8.70;99.90;;;;;;5011214;28;20038;-60
2021/04/29 07:35:45;;;;;;;20.20;9.32;;;8.70;99.90;;;;;;5012861;28;20562;-59
2021/04/29 07:38:11;;;;;;;16.55;9.38;;;8.70;99.90;;;;;;5016850;28;20084;-59
2021/04/29 07:40:37;;;;;;;11.75;8.30;;;8.70;99.90;;;;;;5010985;28;20548;-59
2021/04/29 07:43:03;;;;;;;14.60;8.57;;;8.70;99.90;;;;;;5012632;28;20033;-59
2021/04/29 07:45:30;;;;;;;15.57;9.05;;;8.70;99.90;;;;;;5015958;28;20434;-59
2021/04/29 07:47:55;;;;;;;16.25;10.23;;;8.50;99.90;;;;;;5021197;28;20033;-59
2021/04/29 07:50:21;;;;;;;31.13;11.75;;;8.40;99.90;;;;;;5013580;28;20394;-59
2021/04/29 07:52:48;;;;;;;14.48;10.55;;;8.30;99.90;;;;;;5016659;28;20079;-59
2021/04/29 07:55:15;;;;;;;14.23;10.52;;;8.40;99.90;;;;;;5019800;28;20029;-59
2021/04/29 07:57:41;;;;;;;15.43;10.00;;;8.40;99.90;;;;;;5015284;28;20052;-60
2021/04/29 08:00:10;;;;;;;11.05;8.75;;;8.40;99.90;;;;;;5015083;28;20022;-59
2021/04/29 08:02:36;;;;;;;12.13;8.65;;;8.40;99.90;;;;;;5017480;28;20435;-59
2021/04/29 08:05:02;;;;;;;16.00;9.95;;;8.40;99.90;;;;;;5015437;28;20361;-58
2021/04/29 08:07:28;;;;;;;19.15;9.48;;;8.40;99.90;;;;;;5015111;28;20474;-58
2021/04/29 08:09:53;;;;;;;16.85;9.32;;;8.50;99.90;;;;;;5015202;28;20033;-58
2021/04/29 08:12:19;;;;;;;16.20;8.82;;;8.50;99.90;;;;;;5008823;28;20021;-59
2021/04/29 08:14:45;;;;;;;26.35;10.65;;;8.60;99.90;;;;;;5016788;28;20034;-59
2021/04/29 08:17:10;;;;;;;15.48;9.52;;;8.70;99.90;;;;;;5009436;28;20026;-58
2021/04/29 08:19:36;;;;;;;13.98;9.05;;;8.80;99.90;;;;;;5017660;28;20433;-58
2021/04/29 08:22:03;;;;;;;13.82;8.95;;;8.70;99.90;;;;;;5011814;28;20087;-58
2021/04/29 08:24:30;;;;;;;15.02;9.18;;;8.70;99.90;;;;;;5010823;28;20573;-58
2021/04/29 08:26:55;;;;;;;29.35;10.40;;;8.60;99.90;;;;;;5017353;28;20834;-59
2021/04/29 08:29:21;;;;;;;12.25;8.98;;;8.70;99.90;;;;;;5011673;28;20029;-59
2021/04/29 08:31:47;;;;;;;11.13;8.95;;;8.60;99.90;;;;;;5013009;28;20100;-59
2021/04/29 08:34:12;;;;;;;12.68;9.55;;;8.50;99.90;;;;;;5015197;28;20039;-59
2021/04/29 08:36:38;;;;;;;12.82;9.65;;;8.50;99.90;;;;;;5021559;28;20041;-59
2021/04/29 08:39:05;;;;;;;15.02;10.05;;;8.60;99.90;;;;;;5012655;28;20115;-59
2021/04/29 08:41:32;;;;;;;15.93;10.38;;;8.80;99.90;;;;;;5011364;28;20051;-59
2021/04/29 08:43:58;;;;;;;13.25;9.25;;;9.00;99.90;;;;;;5010915;28;20083;-58
2021/04/29 08:46:24;;;;;;;15.77;9.32;;;9.30;99.90;;;;;;5020673;28;20072;-58
2021/04/29 08:48:57;;;;;;;15.65;9.82;;;9.50;99.90;;;;;;5022275;28;20516;-58
2021/04/29 08:51:25;;;;;;;13.65;9.82;;;9.50;99.90;;;;;;5018171;28;20038;-58
2021/04/29 08:53:51;;;;;;;12.63;10.30;;;9.50;99.90;;;;;;5023691;28;20025;-58
2021/04/29 08:56:22;;;;;;;18.05;11.05;;;9.30;99.90;;;;;;5014030;28;20030;-58
2021/04/29 08:58:50;;;;;;;16.33;11.05;;;9.20;99.90;;;;;;5024866;28;20041;-58
2021/04/29 09:01:15;;;;;;;17.58;11.70;;;9.10;99.90;;;;;;5024337;28;20111;-58
2021/04/29 09:03:41;;;;;;;15.35;11.05;;;9.10;99.90;;;;;;5023207;28;20199;-58
2021/04/29 09:06:07;;;;;;;17.35;10.55;;;8.90;99.90;;;;;;5024717;28;20146;-59
2021/04/29 09:08:35;;;;;;;16.88;11.25;;;8.90;99.90;;;;;;5018357;28;20108;-59
2021/04/29 09:11:15;;;;;;;14.63;10.65;;;8.90;99.90;;;;;;5020831;28;20037;-59
2021/04/29 09:13:52;;;;;;;14.82;10.07;;;8.80;99.90;;;;;;5023233;28;20029;-59
2021/04/29 09:16:18;;;;;;;15.70;10.48;;;8.70;99.90;;;;;;5020900;28;20025;-59
2021/04/29 09:18:44;;;;;;;14.82;9.30;;;8.80;99.90;;;;;;5021733;28;20314;-59
2021/04/29 09:21:14;;;;;;;12.52;8.63;;;8.80;99.90;;;;;;5015326;28;20547;-59
2021/04/29 09:23:51;;;;;;;10.15;7.47;;;8.90;99.90;;;;;;5023217;28;20045;-59
2021/04/29 09:26:20;;;;;;;12.15;7.75;;;9.10;99.90;;;;;;5015432;28;20036;-59
2021/04/29 09:28:48;;;;;;;12.27;7.45;;;9.20;99.90;;;;;;5019167;28;20083;-60
2021/04/29 09:31:20;;;;;;;11.55;7.45;;;9.40;99.90;;;;;;5017274;28;20026;-60
2021/04/29 09:33:48;;;;;;;10.60;6.68;;;9.40;99.90;;;;;;5014946;28;20037;-60
2021/04/29 09:36:45;;;;;;;10.40;6.93;;;9.30;99.90;;;;;;5024144;28;20082;-60
2021/04/29 09:39:18;;;;;;;8.60;6.18;;;9.40;99.90;;;;;;5014828;28;20502;-60
2021/04/29 09:41:47;;;;;;;;;;;9.40;99.90;;;;;;5026808;28;20101;-60
2021/04/29 09:44:17;;;;;;;8.32;5.75;;;9.70;99.90;;;;;;5016639;28;19941;-60
2021/04/29 09:46:44;;;;;;;15.23;7.15;;;10.00;99.90;;;;;;5018702;28;20037;-60
2021/04/29 09:49:32;;;;;;;10.85;6.75;;;9.90;99.90;;;;;;5019526;28;20030;-60
2021/04/29 09:52:00;;;;;;;9.43;6.65;;;9.80;99.90;;;;;;5014996;28;20025;-60
2021/04/29 09:54:32;;;;;;;11.82;7.30;;;9.90;99.90;;;;;;5010951;28;20125;-59
2021/04/29 09:57:00;;;;;;;10.65;6.45;;;9.90;99.90;;;;;;5013989;28;20030;-59
2021/04/29 09:59:27;;;;;;;11.70;7.45;;;9.90;99.90;;;;;;5014673;28;20041;-59
2021/04/29 10:01:54;;;;;;;10.80;7.07;;;9.90;99.90;;;;;;5018085;28;20033;-59
2021/04/29 10:04:23;;;;;;;18.02;7.35;;;9.70;99.90;;;;;;4997097;28;20044;-59
2021/04/29 10:06:48;;;;;;;13.73;7.63;;;9.60;99.90;;;;;;5013849;28;20037;-59
2021/04/29 10:09:14;;;;;;;15.65;8.32;;;9.30;99.90;;;;;;5014388;28;20029;-59
2021/04/29 10:11:43;;;;;;;14.80;9.23;;;9.30;99.90;;;;;;5024526;28;20107;-59
2021/04/29 10:14:11;;;;;;;17.52;10.63;;;9.40;99.90;;;;;;5025767;28;20397;-60
2021/04/29 10:16:38;;;;;;;13.45;8.05;;;9.80;99.90;;;;;;5021091;28;20037;-60
2021/04/29 10:19:04;;;;;;;13.75;7.60;;;10.10;99.90;;;;;;5024827;28;20026;-60
2021/04/29 10:21:30;;;;;;;13.63;7.90;;;10.50;99.90;;;;;;5019726;28;20083;-60
2021/04/29 10:23:56;;;;;;;13.73;6.95;;;10.50;99.90;;;;;;5019276;28;20026;-59
2021/04/29 10:26:26;;;;;;;12.75;7.38;;;10.50;99.90;;;;;;5012751;28;20038;-60
2021/04/29 10:28:57;;;;;;;12.55;7.15;;;10.50;99.90;;;;;;5026494;28;20668;-60
2021/04/29 10:31:30;;;;;;;13.15;6.95;;;10.60;99.90;;;;;;5024736;28;20632;-59
2021/04/29 10:34:05;;;;;;;17.88;7.25;;;10.60;99.90;;;;;;5022957;28;20033;-59
2021/04/29 10:36:48;;;;;;;23.75;7.50;;;10.70;99.90;;;;;;5018378;28;20042;-59
2021/04/29 10:39:15;;;;;;;16.50;7.22;;;10.60;99.90;;;;;;5020657;28;20411;-58
2021/04/29 10:41:43;;;;;;;23.55;7.28;;;10.30;99.90;;;;;;5018287;28;20030;-59
2021/04/29 10:44:12;;;;;;;21.30;7.43;;;10.00;99.90;;;;;;5019538;28;20497;-59
2021/04/29 10:46:39;;;;;;;21.70;7.70;;;10.00;99.90;;;;;;5023010;28;20060;-59
2021/04/29 10:49:06;;;;;;;23.45;7.97;;;10.10;99.90;;;;;;5012222;28;20034;-59
2021/04/29 10:51:40;;;;;;;11.68;6.32;;;10.40;99.90;;;;;;5013282;28;20383;-59
2021/04/29 10:54:19;;;;;;;12.40;7.40;;;10.80;99.90;;;;;;5022663;28;20037;-58
2021/04/29 10:57:08;;;;;;;15.93;6.57;;;11.10;99.90;;;;;;5017984;28;20057;-58
2021/04/29 10:59:48;;;;;;;10.45;6.28;;;11.60;99.90;;;;;;5015607;28;20049;-59
2021/04/29 11:02:29;;;;;;;15.50;6.28;;;11.90;99.90;;;;;;5021448;28;20040;-59
2021/04/29 11:04:55;;;;;;;18.45;6.40;;;11.90;99.90;;;;;;5018281;28;20034;-59
2021/04/29 11:07:23;;;;;;;13.48;6.28;;;11.40;99.90;;;;;;5015280;28;20033;-59
2021/04/29 11:10:07;;;;;;;21.90;7.93;;;10.90;99.90;;;;;;5015677;28;20080;-59
2021/04/29 11:12:54;;;;;;;9.43;6.47;;;10.30;99.90;;;;;;5018077;28;20085;-59
2021/04/29 11:15:26;;;;;;;16.90;7.28;;;10.00;99.90;;;;;;5017829;28;20018;-59
2021/04/29 11:18:19;;;;;;;10.82;6.40;;;9.90;99.90;;;;;;5017417;28;20052;-59
2021/04/29 11:20:52;;;;;;;13.55;6.38;;;10.50;99.90;;;;;;5017383;28;20045;-60
2021/04/29 11:23:26;;;;;;;21.35;8.25;;;10.80;99.90;;;;;;5015934;28;20124;-60
2021/04/29 11:26:06;;;;;;;20.85;7.30;;;10.80;99.90;;;;;;5012987;28;20022;-58
2021/04/29 11:28:32;;;;;;;12.57;6.70;;;10.70;99.90;;;;;;5017721;28;20466;-58
2021/04/29 11:30:58;;;;;;;17.88;7.05;;;10.40;99.90;;;;;;5016867;28;20178;-59
2021/04/29 11:33:47;;;;;;;11.75;6.63;;;10.30;99.90;;;;;;5019204;28;20037;-59
2021/04/29 11:36:30;;;;;;;9.50;6.57;;;10.40;99.90;;;;;;5014637;28;20057;-59
2021/04/29 11:39:01;;;;;;;23.05;7.28;;;10.50;99.90;;;;;;5016512;28;20025;-59
2021/04/29 11:41:29;;;;;;;9.63;5.65;;;10.90;99.90;;;;;;5002195;28;20036;-58
2021/04/29 11:44:02;;;;;;;9.32;5.57;;;12.20;99.90;;;;;;5013043;28;20088;-60
2021/04/29 11:46:29;;;;;;;6.45;4.35;;;13.90;99.90;;;;;;5012841;28;20034;-60
2021/04/29 11:48:59;;;;;;;6.28;5.20;;;14.50;99.90;;;;;;5017977;28;20036;-60
2021/04/29 11:51:27;;;;;;;9.32;5.10;;;14.30;99.90;;;;;;5015701;28;20064;-60
2021/04/29 11:53:53;;;;;;;15.85;8.15;;;13.80;99.90;;;;;;5033494;28;20040;-60
2021/04/29 11:56:19;;;;;;;15.68;8.48;;;13.00;99.90;;;;;;5009527;28;20022;-60
2021/04/29 11:58:57;;;;;;;12.07;6.22;;;12.40;99.90;;;;;;5012863;28;20747;-60
2021/04/29 12:01:22;;;;;;;9.02;6.03;;;12.20;99.90;;;;;;5015499;28;20056;-60
2021/04/29 12:03:48;;;;;;;13.15;6.75;;;12.10;99.90;;;;;;5010848;28;20033;-60
2021/04/29 12:06:14;;;;;;;15.23;6.13;;;12.00;99.90;;;;;;5015568;28;20362;-58
2021/04/29 12:08:39;;;;;;;22.10;7.30;;;11.80;99.90;;;;;;5021366;28;20040;-59
2021/04/29 12:11:07;;;;;;;12.82;6.97;;;11.70;99.90;;;;;;5019823;28;20033;-60
2021/04/29 12:13:35;;;;;;;9.10;5.68;;;11.90;99.90;;;;;;5016751;28;20041;-60
2021/04/29 12:16:21;;;;;;;9.15;6.40;;;11.70;99.90;;;;;;5016132;28;20411;-60
2021/04/29 12:18:49;;;;;;;7.53;5.25;;;11.50;99.90;;;;;;5015123;28;20030;-60
2021/04/29 12:21:16;;;;;;;10.00;6.18;;;11.40;99.90;;;;;;5018677;28;20058;-60
2021/04/29 12:23:43;;;;;;;9.43;5.90;;;11.60;99.90;;;;;;5017638;28;20046;-60
2021/04/29 12:26:10;;;;;;;8.90;5.88;;;11.70;99.90;;;;;;5016874;28;20697;-60
2021/04/29 12:28:38;;;;;;;11.48;6.22;;;11.80;99.90;;;;;;5010232;28;20048;-60
2021/04/29 12:31:22;;;;;;;7.82;5.65;;;11.80;99.90;;;;;;5015130;28;20083;-60
2021/04/29 12:34:14;;;;;;;6.93;5.63;;;11.80;99.90;;;;;;5016663;28;20034;-60
2021/04/29 12:36:59;;;;;;;9.68;6.28;;;11.70;99.90;;;;;;5017492;28;20513;-60
2021/04/29 12:39:26;;;;;;;11.35;6.25;;;11.70;99.90;;;;;;5016874;28;20025;-60
2021/04/29 12:41:52;;;;;;;18.20;6.30;;;12.00;99.90;;;;;;5016054;28;20823;-60